Flight Track Log - Related Links

Times and Time Zones

All times are in EDT time to prevent confusion due to time zone crossing. See the FFT917 flight status page for this flight to view local times or setup timezone preferences in your user account.

Time Position Orientation Groundspeed Altitude Reporting Facility
EDT Latitude Longitude Course Direction KTS MPH feet Rate Location/Type
Sat 07:53:32 AM 40.2770 -74.8170 270° West  Level FlightAware ADS-B
Sat 07:54:56 AM 40.2770 -74.8180 270° West 89 Level FlightAware ADS-B
Sat 07:57:00 AM 40.1500 -75.0632 270° West  Level FlightAware Approximate
Sat 07:58:00 AM 40.0984 -75.1865 237° Southwest  Level FlightAware Approximate
Sat 07:59:00 AM 40.0452 -75.3140 239° Southwest  Level FlightAware Approximate
Sat 08:00:00 AM 39.9875 -75.4408 239° Southwest  Level FlightAware Approximate
Sat 08:01:00 AM 39.9333 -75.5630 270° West  Level FlightAware Approximate
Sat 08:04:00 AM 40.1300 -75.1233 237° Southwest  Level FlightAware Approximate
Sat 08:05:00 AM 40.0667 -75.2575 270° West  Level FlightAware Approximate
Sat 08:06:00 AM 40.0082 -75.3953 239° Southwest  Level FlightAware Approximate
Sat 08:10:00 AM 40.1170 -75.1494 237° Southwest  Level FlightAware Approximate
Sat 08:11:00 AM 40.0581 -75.2856 239° Southwest  Level FlightAware Approximate
Sat 08:11:26 AM 40.2570 -74.8380 239° Southwest 135 155 1,600  Level FlightAware ADS-B
Sat 08:11:46 AM 40.2470 -74.8500 222° Southwest 164 189 2,000 1,500 Climbing FlightAware ADS-B
Sat 08:12:10 AM 40.2330 -74.8680 224° Southwest 191 220 2,700 1,667 Climbing FlightAware ADS-B
Sat 08:12:22 AM 40.2240 -74.8780 220° Southwest 206 237 3,000 1,667 Climbing FlightAware ADS-B
Sat 08:12:46 AM 40.2090 -74.9020 231° Southwest 237 273 3,700 1,909 Climbing FlightAware ADS-B
Sat 08:13:06 AM 40.1980 -74.9290 242° Southwest 268 308 4,400 2,462 Climbing FlightAware ADS-B
Sat 08:13:25 AM 40.1860 -74.9590 242° Southwest 281 323 5,300 2,923 Climbing FlightAware ADS-B
Sat 08:13:45 AM 40.1730 -74.9900 241° Southwest 280 322 6,300 2,195 Climbing FlightAware ADS-B
Sat 08:14:06 AM 40.1610 -75.0200 242° Southwest 282 325 6,800 698 Climbing FlightAware ADS-B
Sat 08:14:28 AM 40.1470 -75.0540 242° Southwest 284 327 6,800  Level FlightAware ADS-B
Sat 08:14:52 AM 40.1320 -75.0900 241° Southwest 285 328 6,800  Level FlightAware ADS-B
Sat 08:15:12 AM 40.1200 -75.1200 242° Southwest 286 329 6,800  Level FlightAware ADS-B
Sat 08:15:31 AM 40.1080 -75.1500 242° Southwest 285 328 6,800  Level FlightAware ADS-B
Sat 08:15:52 AM 40.0950 -75.1800 240° Southwest 285 328 6,800 439 Level FlightAware ADS-B
Sat 08:16:12 AM 40.0820 -75.2120 242° Southwest 285 328 7,100 1,909 Climbing FlightAware ADS-B
Sat 08:16:36 AM 40.0670 -75.2490 242° Southwest 295 339 8,200 2,864 Climbing FlightAware ADS-B
Sat 08:16:56 AM 40.0540 -75.2800 241° Southwest 291 335 9,200 2,400 Climbing FlightAware ADS-B
Sat 08:17:16 AM 40.0410 -75.3100 240° Southwest 289 333 9,800 955 Climbing FlightAware ADS-B
Sat 08:17:40 AM 40.0260 -75.3470 242° Southwest 297 342 9,900  Climbing FlightAware ADS-B
Sat 08:17:55 AM 40.0150 -75.3740 242° Southwest 322 371 9,800 -150 Descending FlightAware ADS-B
Sat 08:18:20 AM 39.9980 -75.4160 242° Southwest 329 379 9,800  Level FlightAware ADS-B
Sat 08:18:40 AM 39.9850 -75.4470 241° Southwest 329 379 9,800  Level FlightAware ADS-B
Sat 08:19:01 AM 39.9680 -75.4880 242° Southwest 329 379 9,800  Level FlightAware ADS-B
Sat 08:19:24 AM 39.9510 -75.5290 242° Southwest 328 377 9,800 140 Level FlightAware ADS-B
Sat 08:19:44 AM 39.9370 -75.5630 242° Southwest 328 377 9,900 1,579 Climbing FlightAware ADS-B
Sat 08:20:21 AM 39.9100 -75.6270 241° Southwest 333 383 11,300 1,701 Climbing FlightAware ADS-B
Sat 08:20:51 AM 39.8870 -75.6810 241° Southwest 337 388 11,800 1,304 Climbing FlightAware ADS-B
Sat 08:21:30 AM 39.8580 -75.7520 242° Southwest 345 397 12,800 2,432 Climbing FlightAware ADS-B
Sat 08:22:05 AM 39.8290 -75.8130 238° Southwest 344 396 14,800 2,776 Climbing FlightAware ADS-B
Sat 08:22:37 AM 39.7970 -75.8650 231° Southwest 356 410 15,900 2,261 Climbing FlightAware ADS-B
Sat 08:23:14 AM 39.7570 -75.9280 230° Southwest 366 421 17,400 2,417 Climbing FlightAware ADS-B
Sat 08:23:49 AM 39.7200 -75.9880 231° Southwest 373 429 18,800 2,250 Climbing FlightAware ADS-B
Sat 08:24:26 AM 39.6780 -76.0530 230° Southwest 382 440 20,100 2,000 Climbing FlightAware ADS-B
Sat 08:24:58 AM 39.6430 -76.1080 230° Southwest 391 450 21,100 2,060 Climbing FlightAware ADS-B
Sat 08:25:33 AM 39.6040 -76.1710 231° Southwest 395 455 22,400 1,970 Climbing FlightAware ADS-B
Sat 08:26:05 AM 39.5650 -76.2300 229° Southwest 405 466 23,300 1,826 Climbing FlightAware ADS-B
Sat 08:26:42 AM 39.5200 -76.2990 230° Southwest 413 475 24,500 1,971 Climbing FlightAware ADS-B
Sat 08:27:15 AM 39.4780 -76.3650 231° Southwest 416 479 25,600 1,333 Climbing FlightAware ADS-B
Sat 08:33:09 AM 38.9980 -77.0890 230° Southwest 484 557 33,100 1,260 Climbing FlightAware ADS-B
Sat 08:33:17 AM 38.9840 -77.1050 222° Southwest 485 558 33,200 1,125 Climbing FlightAware ADS-B
Sat 08:33:25 AM 38.9700 -77.1210 222° Southwest 486 559 33,400 1,500 Climbing FlightAware ADS-B
Sat 08:33:29 AM 38.9650 -77.1260 218° Southwest 486 559 33,500 1,500 Climbing FlightAware ADS-B
Sat 08:33:37 AM 38.9490 -77.1430 220° Southwest 486 559 33,700 1,500 Climbing FlightAware ADS-B
Sat 08:33:45 AM 38.9360 -77.1570 220° Southwest 485 558 33,900 1,500 Climbing FlightAware ADS-B
Sat 08:33:49 AM 38.9310 -77.1630 223° Southwest 484 557 34,000 1,500 Climbing FlightAware ADS-B
Sat 08:33:57 AM 38.9140 -77.1810 219° Southwest 484 557 34,200 1,125 Climbing FlightAware ADS-B
Sat 08:34:05 AM 38.9030 -77.1930 220° Southwest 485 558 34,300 1,000 Climbing FlightAware ADS-B
Sat 08:34:09 AM 38.8950 -77.2020 221° Southwest 484 557 34,400 1,875 Climbing FlightAware ADS-B
Sat 08:34:21 AM 38.8750 -77.2250 222° Southwest 481 554 34,800 1,875 Climbing FlightAware ADS-B
Sat 08:34:25 AM 38.8680 -77.2320 218° Southwest 480 552 34,900 1,500 Climbing FlightAware ADS-B
Sat 08:34:33 AM 38.8540 -77.2470 220° Southwest 478 550 35,100 1,500 Climbing FlightAware ADS-B
Sat 08:34:41 AM 38.8430 -77.2600 223° Southwest 476 548 35,300 2,000 Climbing FlightAware ADS-B
Sat 08:34:45 AM 38.8340 -77.2700 221° Southwest 476 548 35,500 1,500 Climbing FlightAware ADS-B
Sat 08:34:53 AM 38.8230 -77.2810 218° Southwest 476 548 35,600 750 Climbing FlightAware ADS-B
Sat 08:35:01 AM 38.8080 -77.2980 221° Southwest 476 548 35,700 1,125 Climbing FlightAware ADS-B
Sat 08:35:09 AM 38.7930 -77.3140 220° Southwest 478 550 35,900 1,125 Climbing FlightAware ADS-B
Sat 08:35:17 AM 38.7830 -77.3250 221° Southwest 478 550 36,000 1,000 Climbing FlightAware ADS-B
Sat 08:35:21 AM 38.7720 -77.3380 223° Southwest 479 551 36,100 1,000 Climbing FlightAware ADS-B
Sat 08:35:29 AM 38.7590 -77.3520 220° Southwest 479 551 36,200 750 Climbing FlightAware ADS-B
Sat 08:35:37 AM 38.7450 -77.3670 220° Southwest 480 552 36,300 1,000 Climbing FlightAware ADS-B
Sat 08:35:41 AM 38.7390 -77.3730 218° Southwest 478 550 36,400 1,500 Climbing FlightAware ADS-B
Sat 08:35:49 AM 38.7240 -77.3890 220° Southwest 477 549 36,600 1,500 Climbing FlightAware ADS-B
Sat 08:35:57 AM 38.7110 -77.4040 222° Southwest 475 547 36,800 1,500 Climbing FlightAware ADS-B
Sat 08:36:05 AM 38.6970 -77.4190 220° Southwest 473 544 37,000 1,500 Climbing FlightAware ADS-B
Sat 08:36:09 AM 38.6910 -77.4250 218° Southwest 473 544 37,100 1,500 Climbing FlightAware ADS-B
Sat 08:36:17 AM 38.6780 -77.4390 220° Southwest 472 543 37,300 1,059 Climbing FlightAware ADS-B
Sat 08:36:26 AM 38.6640 -77.4550 222° Southwest 472 543 37,400 750 Climbing FlightAware ADS-B
Sat 08:36:33 AM 38.6520 -77.4680 220° Southwest 472 543 37,500 1,091 Climbing FlightAware ADS-B
Sat 08:36:37 AM 38.6450 -77.4750 218° Southwest 471 542 37,600 1,000 Climbing FlightAware ADS-B
Sat 08:36:45 AM 38.6310 -77.4910 222° Southwest 471 542 37,700 750 Climbing FlightAware ADS-B
Sat 08:36:53 AM 38.6180 -77.5050 220° Southwest 470 541 37,800 1,125 Climbing FlightAware ADS-B
Sat 08:37:01 AM 38.6050 -77.5190 220° Southwest 468 539 38,000 1,000 Climbing FlightAware ADS-B
Sat 08:37:05 AM 38.5980 -77.5270 222° Southwest 468 539 38,000  Level FlightAware ADS-B
Sat 08:37:13 AM 38.5850 -77.5410 220° Southwest 467 537 38,000  Level FlightAware ADS-B
Sat 08:37:21 AM 38.5720 -77.5550 220° Southwest 466 536 38,000 375 Level FlightAware ADS-B
Sat 08:37:29 AM 38.5580 -77.5690 218° Southwest 465 535 38,100 500 Climbing FlightAware ADS-B
Sat 08:37:33 AM 38.5520 -77.5760 222° Southwest 464 534 38,100  Level FlightAware ADS-B
Sat 08:37:41 AM 38.5390 -77.5910 222° Southwest 463 533 38,100  Level FlightAware ADS-B
Sat 08:37:49 AM 38.5250 -77.6050 218° Southwest 465 535 38,100  Level FlightAware ADS-B
Sat 08:37:53 AM 38.5200 -77.6100 218° Southwest 465 535 38,100  Level FlightAware ADS-B
Sat 08:38:01 AM 38.5080 -77.6240 222° Southwest 465 535 38,100 -375 Level FlightAware ADS-B
Sat 08:38:09 AM 38.4940 -77.6390 220° Southwest 466 536 38,000  Descending FlightAware ADS-B
Sat 08:38:17 AM 38.4820 -77.6520 220° Southwest 465 535 38,100 500 Climbing FlightAware ADS-B
Sat 08:38:21 AM 38.4730 -77.6620 221° Southwest 465 535 38,100  Level FlightAware ADS-B
Sat 08:38:29 AM 38.4600 -77.6760 220° Southwest 466 536 38,100 -353 Level FlightAware ADS-B
Sat 08:38:38 AM 38.4460 -77.6910 220° Southwest 466 536 38,000 -353 Descending FlightAware ADS-B
Sat 08:38:46 AM 38.4340 -77.7040 220° Southwest 466 536 38,000 400 Level FlightAware ADS-B
Sat 08:38:53 AM 38.4210 -77.7180 220° Southwest 466 536 38,100 545 Climbing FlightAware ADS-B
Sat 08:38:57 AM 38.4150 -77.7240 218° Southwest 466 536 38,100  Level FlightAware ADS-B
Sat 08:39:05 AM 38.4010 -77.7390 220° Southwest 466 536 38,100  Level FlightAware ADS-B
Sat 08:39:11 AM 38.3920 -77.7490 221° Southwest 466 536 38,100  Level FlightAware ADS-B
Sat 08:39:21 AM 38.3740 -77.7680 220° Southwest 466 536 38,100  Level FlightAware ADS-B
Sat 08:39:25 AM 38.3670 -77.7750 218° Southwest 466 536 38,100  Level FlightAware ADS-B
Sat 08:39:33 AM 38.3550 -77.7890 222° Southwest 466 536 38,100 -375 Level FlightAware ADS-B
Sat 08:39:41 AM 38.3430 -77.8020 220° Southwest 466 536 38,000 -375 Descending FlightAware ADS-B
Sat 08:39:49 AM 38.3280 -77.8170 218° Southwest 466 536 38,000 500 Level FlightAware ADS-B
Sat 08:39:53 AM 38.3210 -77.8250 222° Southwest 466 536 38,100 500 Climbing FlightAware ADS-B
Sat 08:40:01 AM 38.3100 -77.8370 221° Southwest 466 536 38,100  Level FlightAware ADS-B
Sat 08:40:09 AM 38.2980 -77.8500 220° Southwest 466 536 38,100  Level FlightAware ADS-B
Sat 08:40:17 AM 38.2830 -77.8660 220° Southwest 466 536 38,100  Level FlightAware ADS-B
Sat 08:40:21 AM 38.2760 -77.8730 218° Southwest 466 536 38,100  Level FlightAware ADS-B
Sat 08:40:29 AM 38.2630 -77.8880 222° Southwest 466 536 38,100  Level FlightAware ADS-B
Sat 08:40:37 AM 38.2500 -77.9020 220° Southwest 466 536 38,100  Level FlightAware ADS-B
Sat 08:40:45 AM 38.2380 -77.9140 218° Southwest 466 536 38,100  Level FlightAware ADS-B
Sat 08:40:49 AM 38.2310 -77.9220 222° Southwest 466 536 38,100  Level FlightAware ADS-B
Sat 08:40:57 AM 38.2180 -77.9350 218° Southwest 465 535 38,100  Level FlightAware ADS-B
Sat 08:41:05 AM 38.2040 -77.9510 222° Southwest 466 536 38,100  Level FlightAware ADS-B
Sat 08:41:09 AM 38.1960 -77.9590 218° Southwest 466 536 38,100  Level FlightAware ADS-B
Sat 08:41:17 AM 38.1840 -77.9720 220° Southwest 465 535 38,100  Level FlightAware ADS-B
Sat 08:41:25 AM 38.1690 -77.9870 218° Southwest 466 536 38,100 -375 Level FlightAware ADS-B
Sat 08:41:33 AM 38.1560 -78.0010 220° Southwest 466 536 38,000  Descending FlightAware ADS-B
Sat 08:41:37 AM 38.1520 -78.0060 225° Southwest 466 536 38,100 429 Climbing FlightAware ADS-B
Sat 08:41:47 AM 38.1330 -78.0260 220° Southwest 465 535 38,100  Level FlightAware ADS-B
Sat 08:41:55 AM 38.1220 -78.0380 221° Southwest 466 536 38,100 -375 Level FlightAware ADS-B
Sat 08:42:03 AM 38.1060 -78.0550 220° Southwest 466 536 38,000 -500 Descending FlightAware ADS-B
Sat 08:42:07 AM 38.1010 -78.0600 218° Southwest 466 536 38,000  Level FlightAware ADS-B
Sat 08:42:11 AM 38.0940 -78.0670 218° Southwest 466 536 38,000  Level FlightAware ADS-B
Sat 08:42:23 AM 38.0740 -78.0880 220° Southwest 466 536 38,000  Level FlightAware ADS-B
Sat 08:42:31 AM 38.0620 -78.1010 220° Southwest 466 536 38,000  Level FlightAware ADS-B
Sat 08:42:35 AM 38.0540 -78.1100 222° Southwest 466 536 38,000  Level FlightAware ADS-B
Sat 08:42:41 AM 38.0460 -78.1180 218° Southwest 466 536 38,000 375 Level FlightAware ADS-B
Sat 08:42:51 AM 38.0270 -78.1390 221° Southwest 466 536 38,100 353 Climbing FlightAware ADS-B
Sat 08:42:58 AM 38.0180 -78.1480 218° Southwest 465 535 38,100  Level FlightAware ADS-B
Sat 08:43:00 AM 38.0150 -78.1510 218° Southwest 466 536 38,100  Level FlightAware ADS-B
Sat 08:43:10 AM 37.9980 -78.1680 218° Southwest 466 536 38,100  Level FlightAware ADS-B
Sat 08:43:15 AM 37.9920 -78.1740 218° Southwest 466 536 38,100  Level FlightAware ADS-B
Sat 08:43:26 AM 37.9720 -78.1930 217° Southwest 465 535 38,100  Level FlightAware ADS-B
Sat 08:43:57 AM 37.9170 -78.2450 217° Southwest 466 536 38,100 -87 Level FlightAware ADS-B
Sat 08:44:35 AM 37.8500 -78.3090 217° Southwest 465 535 38,000 -83 Descending FlightAware ADS-B
Sat 08:45:09 AM 37.7910 -78.3650 217° Southwest 466 536 38,000  Level FlightAware ADS-B
Sat 08:45:45 AM 37.7290 -78.4250 217° Southwest 466 536 38,000 86 Level FlightAware ADS-B
Sat 08:46:19 AM 37.6720 -78.4780 216° Southwest 467 537 38,100 83 Climbing FlightAware ADS-B
Sat 08:46:57 AM 37.6060 -78.5400 217° Southwest 466 536 38,100  Level FlightAware ADS-B
Sat 08:47:29 AM 37.5520 -78.5920 217° Southwest 466 536 38,100  Level FlightAware ADS-B
Sat 08:48:05 AM 37.4890 -78.6510 217° Southwest 465 535 38,100  Level FlightAware ADS-B
Sat 08:48:39 AM 37.4290 -78.7070 217° Southwest 463 533 38,100  Level FlightAware ADS-B
Sat 08:49:17 AM 37.3670 -78.7650 217° Southwest 463 533 38,100  Level FlightAware ADS-B
Sat 08:49:49 AM 37.3130 -78.8160 217° Southwest 462 532 38,100 -82 Level FlightAware ADS-B
Sat 08:50:30 AM 37.2410 -78.8830 217° Southwest 461 531 38,000 -79 Descending FlightAware ADS-B
Sat 08:51:05 AM 37.1800 -78.9400 217° Southwest 461 531 38,000  Level FlightAware ADS-B
Sat 08:51:48 AM 37.1110 -79.0040 216° Southwest 461 531 38,000  Level FlightAware ADS-B
Sat 08:52:23 AM 37.0540 -79.0570 217° Southwest 461 531 38,000  Level FlightAware ADS-B
Sat 08:52:55 AM 36.9910 -79.1150 216° Southwest 463 533 38,000 86 Level FlightAware ADS-B
Sat 08:53:33 AM 36.9250 -79.1770 217° Southwest 464 534 38,100 81 Climbing FlightAware ADS-B
Sat 08:54:09 AM 36.8640 -79.2330 216° Southwest 464 534 38,100  Level FlightAware ADS-B
Sat 08:54:43 AM 36.8040 -79.2880 216° Southwest 463 533 38,100  Level FlightAware ADS-B
Sat 08:55:15 AM 36.7510 -79.3360 216° Southwest 462 532 38,100 -88 Level FlightAware ADS-B
Sat 08:55:51 AM 36.6870 -79.3950 216° Southwest 461 531 38,000  Descending FlightAware ADS-B
Sat 08:56:29 AM 36.6230 -79.4530 216° Southwest 460 529 38,100 81 Climbing FlightAware ADS-B
Sat 08:57:05 AM 36.5620 -79.5090 216° Southwest 457 526 38,100 -87 Level FlightAware ADS-B
Sat 08:57:38 AM 36.5100 -79.5570 217° Southwest 456 525 38,000 -88 Descending FlightAware ADS-B
Sat 08:58:13 AM 36.4480 -79.6130 216° Southwest 455 524 38,000  Level FlightAware ADS-B
Sat 08:58:49 AM 36.3890 -79.6670 216° Southwest 455 524 38,000  Level FlightAware ADS-B
Sat 08:59:23 AM 36.3290 -79.7210 216° Southwest 454 522 38,000 88 Level FlightAware ADS-B
Sat 08:59:57 AM 36.2710 -79.7740 216° Southwest 447 514 38,100  Climbing FlightAware ADS-B
Sat 09:00:33 AM 36.2150 -79.8240 216° Southwest 454 522 38,000 -85 Descending FlightAware ADS-B
Sat 09:01:08 AM 36.1530 -79.8800 216° Southwest 453 521 38,000  Level FlightAware ADS-B
Sat 09:01:43 AM 36.0970 -79.9300 216° Southwest 454 522 38,000  Level FlightAware ADS-B
Sat 09:02:18 AM 36.0290 -79.9810 211° Southwest 458 527 38,000 71 Level FlightAware ADS-B
Sat 09:03:08 AM 35.9480 -80.0260 204° Southwest 459 528 38,100 71 Climbing FlightAware ADS-B
Sat 09:03:42 AM 35.8730 -80.0640 202° Southwest 454 522 38,100  Level FlightAware ADS-B
Sat 09:04:13 AM 35.8030 -80.0990 202° Southwest 454 522 38,100  Level FlightAware ADS-B
Sat 09:04:47 AM 35.7430 -80.1290 202° Southwest 455 524 38,100  Level FlightAware ADS-B
Sat 09:05:25 AM 35.6660 -80.1680 202° Southwest 461 531 38,100  Level FlightAware ADS-B
Sat 09:06:02 AM 35.5830 -80.2090 202° Southwest 460 529 38,100  Level FlightAware ADS-B
Sat 09:06:38 AM 35.5130 -80.2440 202° Southwest 459 528 38,100 -83 Level FlightAware ADS-B
Sat 09:07:14 AM 35.4410 -80.2800 202° Southwest 460 529 38,000 -85 Descending FlightAware ADS-B
Sat 09:07:49 AM 35.3740 -80.3140 202° Southwest 461 531 38,000  Level FlightAware ADS-B
Sat 09:08:22 AM 35.3070 -80.3470 202° Southwest 461 531 38,000  Level FlightAware ADS-B
Sat 09:08:58 AM 35.2370 -80.3820 202° Southwest 462 532 38,000  Level FlightAware ADS-B
Sat 09:09:34 AM 35.1650 -80.4180 202° Southwest 463 533 38,000  Level FlightAware ADS-B
Sat 09:10:06 AM 35.1010 -80.4490 202° Southwest 463 533 38,000  Level FlightAware ADS-B
Sat 09:10:42 AM 35.0290 -80.4850 202° Southwest 464 534 38,000 105 Level FlightAware ADS-B
Sat 09:11:03 AM 34.9890 -80.5040 201° Southwest 462 532 38,100  Climbing FlightAware ADS-B
Sat 09:11:46 AM 34.9020 -80.5470 202° Southwest 463 533 38,000  Descending FlightAware ADS-B
Sat 09:12:24 AM 34.8270 -80.5840 202° Southwest 463 533 38,100 81 Climbing FlightAware ADS-B
Sat 09:13:00 AM 34.7550 -80.6190 202° Southwest 464 534 38,100  Level FlightAware ADS-B
Sat 09:13:36 AM 34.6830 -80.6550 202° Southwest 463 533 38,100  Level FlightAware ADS-B
Sat 09:14:08 AM 34.6190 -80.6820 199° South 463 533 38,100  Level FlightAware ADS-B
Sat 09:14:44 AM 34.5430 -80.6980 190° South 462 532 38,100  Level FlightAware ADS-B
Sat 09:15:20 AM 34.4670 -80.7100 187° South 461 531 38,100  Level FlightAware ADS-B
Sat 09:15:56 AM 34.3910 -80.7210 187° South 459 528 38,100  Level FlightAware ADS-B
Sat 09:16:28 AM 34.3220 -80.7320 188° South 458 527 38,100 -88 Level FlightAware ADS-B
Sat 09:17:04 AM 34.2460 -80.7430 187° South 456 525 38,000 -83 Descending FlightAware ADS-B
Sat 09:17:40 AM 34.1730 -80.7550 188° South 454 522 38,000 87 Level FlightAware ADS-B
Sat 09:18:13 AM 34.1050 -80.7650 187° South 452 520 38,100 87 Climbing FlightAware ADS-B
Sat 09:18:49 AM 34.0280 -80.7770 187° South 450 518 38,100  Level FlightAware ADS-B
Sat 09:19:26 AM 33.9530 -80.7880 187° South 447 514 38,100 -87 Level FlightAware ADS-B
Sat 09:19:58 AM 33.8860 -80.7980 187° South 445 512 38,000 -90 Descending FlightAware ADS-B
Sat 09:20:33 AM 33.8150 -80.8090 187° South 444 511 38,000  Level FlightAware ADS-B
Sat 09:21:06 AM 33.7500 -80.8190 187° South 444 511 38,000  Level FlightAware ADS-B
Sat 09:21:45 AM 33.6680 -80.8310 187° South 446 513 38,000  Level FlightAware ADS-B
Sat 09:22:17 AM 33.6050 -80.8410 188° South 447 514 38,000 88 Level FlightAware ADS-B
Sat 09:22:53 AM 33.5280 -80.8520 187° South 448 516 38,100 83 Climbing FlightAware ADS-B
Sat 09:23:29 AM 33.4550 -80.8630 187° South 447 514 38,100  Level FlightAware ADS-B
Sat 09:23:59 AM 33.3940 -80.8720 187° South 445 512 38,100  Level FlightAware ADS-B
Sat 09:24:37 AM 33.3140 -80.8840 187° South 443 510 38,100  Level FlightAware ADS-B
Sat 09:25:12 AM 33.2440 -80.8950 187° South 440 506 38,100 -83 Level FlightAware ADS-B
Sat 09:25:49 AM 33.1690 -80.9060 187° South 438 504 38,000 -82 Descending FlightAware ADS-B
Sat 09:26:25 AM 33.0980 -80.9160 187° South 436 502 38,000  Level FlightAware ADS-B
Sat 09:26:58 AM 33.0300 -80.9260 187° South 435 501 38,000  Level FlightAware ADS-B
Sat 09:27:33 AM 32.9610 -80.9360 187° South 434 499 38,000  Level FlightAware ADS-B
Sat 09:28:06 AM 32.8950 -80.9460 187° South 435 501 38,000  Level FlightAware ADS-B
Sat 09:28:43 AM 32.8230 -80.9570 187° South 436 502 38,000 82 Level FlightAware ADS-B
Sat 09:29:19 AM 32.7500 -80.9670 187° South 436 502 38,100 92 Climbing FlightAware ADS-B
Sat 09:29:48 AM 32.6910 -80.9760 187° South 436 502 38,100  Level FlightAware ADS-B
Sat 09:29:56 AM 32.6770 -80.9780 187° South 436 502 38,100  Level FlightAware ADS-B
Sat 09:33:39 AM 32.2320 -81.0440 187° South 432 497 38,100  Level FlightAware ADS-B
Sat 09:34:42 AM 32.1150 -81.0610 187° South 432 497 38,100  Level FlightAware ADS-B
Sat 09:35:31 AM 32.0170 -81.0750 187° South 432 497 38,100  Level FlightAware ADS-B
Sat 09:36:03 AM 31.9630 -81.0830 187° South 432 497 38,100  Level FlightAware ADS-B
Sat 09:37:16 AM 31.8100 -81.1050 187° South 431 496 38,100  Level FlightAware ADS-B
Sat 09:37:48 AM 31.7540 -81.1130 187° South 430 495 38,100 -71 Level FlightAware ADS-B
Sat 09:38:40 AM 31.6380 -81.1290 187° South 428 493 38,000 -57 Descending FlightAware ADS-B
Sat 09:39:33 AM 31.5410 -81.1430 187° South 428 493 38,000  Level FlightAware ADS-B
Sat 09:40:38 AM 31.4120 -81.1620 187° South 428 493 38,000 62 Level FlightAware ADS-B
Sat 09:41:10 AM 31.3590 -81.1690 186° South 428 493 38,100 77 Climbing FlightAware ADS-B
Sat 09:41:56 AM 31.2500 -81.1710 181° South 432 497 38,100  Level FlightAware ADS-B
Sat 09:42:27 AM 31.1860 -81.1690 178° South 432 497 38,100  Level FlightAware ADS-B
Sat 09:43:04 AM 31.1120 -81.1670 179° South 431 496 38,100  Level FlightAware ADS-B
Sat 09:43:41 AM 31.0390 -81.1650 179° South 430 495 38,100  Level FlightAware ADS-B
Sat 09:44:16 AM 30.9710 -81.1630 179° South 429 494 38,100  Level FlightAware ADS-B
Sat 09:44:48 AM 30.9070 -81.1610 178° South 428 493 38,100 -87 Level FlightAware ADS-B
Sat 09:45:25 AM 30.8350 -81.1590 179° South 428 493 38,000 -1,000 Descending FlightAware ADS-B
Sat 09:46:00 AM 30.7640 -81.1560 178° South 427 491 36,900 -2,282 Descending FlightAware ADS-B
Sat 09:46:36 AM 30.6930 -81.1540 179° South 429 494 35,300 -2,382 Descending FlightAware ADS-B
Sat 09:47:08 AM 30.6270 -81.1520 179° South 436 502 34,200 -1,391 Descending FlightAware ADS-B
Sat 09:47:45 AM 30.5520 -81.1500 179° South 442 509 33,700 -1,297 Descending FlightAware ADS-B
Sat 09:48:22 AM 30.4780 -81.1480 179° South 436 502 32,600 -1,800 Descending FlightAware ADS-B
Sat 09:48:55 AM 30.4110 -81.1460 179° South 440 506 31,600 -1,800 Descending FlightAware ADS-B
Sat 09:49:32 AM 30.3350 -81.1430 178° South 441 507 30,500 -1,652 Descending FlightAware ADS-B
Sat 09:50:04 AM 30.2670 -81.1410 179° South 458 527 29,700 -1,313 Descending FlightAware ADS-B
Sat 09:50:36 AM 30.2000 -81.1390 179° South 460 529 29,100 -1,059 Descending FlightAware ADS-B
Sat 09:51:12 AM 30.1240 -81.1370 179° South 452 520 28,500 -1,000 Descending FlightAware ADS-B
Sat 09:51:42 AM 30.0610 -81.1350 178° South 447 514 28,000 -985 Descending FlightAware ADS-B
Sat 09:52:19 AM 29.9850 -81.1210 171° South 450 518 27,400 -1,000 Descending FlightAware ADS-B
Sat 09:52:54 AM 29.9180 -81.0910 159° South 448 516 26,800 -971 Descending FlightAware ADS-B
Sat 09:53:27 AM 29.8530 -81.0630 160° South 446 513 26,300 -1,082 Descending FlightAware ADS-B
Sat 09:53:55 AM 29.8000 -81.0400 159° South 439 505 25,700 -1,594 Descending FlightAware ADS-B
Sat 09:54:31 AM 29.7320 -81.0110 160° South 430 495 24,600 -1,890 Descending FlightAware ADS-B
Sat 09:55:08 AM 29.6630 -80.9880 164° South 419 482 23,400 -2,000 Descending FlightAware ADS-B
Sat 09:55:19 AM 29.6410 -80.9880 180° South 415 478 23,000 -2,087 Descending FlightAware ADS-B
Sat 09:55:54 AM 29.5750 -80.9980 188° South 407 468 21,800 -2,000 Descending FlightAware ADS-B
Sat 09:56:31 AM 29.5090 -81.0090 188° South 402 463 20,600 -2,000 Descending FlightAware ADS-B
Sat 09:57:03 AM 29.4480 -81.0190 188° South 398 458 19,500 -2,029 Descending FlightAware ADS-B
Sat 09:57:39 AM 29.3840 -81.0290 188° South 395 455 18,300 -2,087 Descending FlightAware ADS-B
Sat 09:58:12 AM 29.3240 -81.0390 188° South 389 448 17,100 -1,944 Descending FlightAware ADS-B
Sat 09:58:50 AM 29.2560 -81.0500 188° South 379 436 16,000 -1,800 Descending FlightAware ADS-B
Sat 09:59:22 AM 29.2010 -81.0590 188° South 375 432 15,000 -1,775 Descending FlightAware ADS-B
Sat 10:00:01 AM 29.1340 -81.0700 188° South 368 423 13,900 -1,703 Descending FlightAware ADS-B
Sat 10:00:36 AM 29.0760 -81.0800 189° South 366 421 12,900 -1,676 Descending FlightAware ADS-B
Sat 10:01:09 AM 29.0220 -81.0880 187° South 363 418 12,000 -896 Descending FlightAware ADS-B
Sat 10:01:43 AM 28.9620 -81.0810 174° South 357 411 11,900 -78 Descending FlightAware ADS-B
Sat 10:02:26 AM 28.8970 -81.0840 182° South 310 357 11,900 -308 Level FlightAware ADS-B
Sat 10:03:01 AM 28.8500 -81.0980 195° South 286 329 11,500 -656 Descending FlightAware ADS-B
Sat 10:03:30 AM 28.8160 -81.0930 173° South 271 312 11,200 -762 Descending FlightAware ADS-B
Sat 10:04:04 AM 28.7780 -81.0730 155° Southeast 255 293 10,700 -1,120 Descending FlightAware ADS-B
Sat 10:04:45 AM 28.7340 -81.0500 155° Southeast 255 293 9,800 -1,238 Descending FlightAware ADS-B
Sat 10:05:07 AM 28.7100 -81.0370 155° Southeast 252 290 9,400 -923 Descending FlightAware ADS-B
Sat 10:05:37 AM 28.6800 -81.0210 155° Southeast 248 285 9,000 -732 Descending FlightAware ADS-B
Sat 10:05:48 AM 28.6660 -81.0180 169° South 249 287 8,900 -171 Descending FlightAware ADS-B
Sat 10:06:12 AM 28.6410 -81.0270 198° South 251 289 8,900  Level FlightAware ADS-B
Sat 10:06:25 AM 28.6320 -81.0400 232° Southwest 246 283 8,900  Level FlightAware ADS-B
Sat 10:06:37 AM 28.6240 -81.0540 237° Southwest 246 283 8,900  Level FlightAware ADS-B
Sat 10:06:57 AM 28.6100 -81.0740 231° Southwest 245 282 8,900  Level FlightAware ADS-B
Sat 10:07:21 AM 28.5940 -81.1000 235° Southwest 247 284 8,900  Level FlightAware ADS-B
Sat 10:07:36 AM 28.5840 -81.1160 235° Southwest 246 283 8,900  Level FlightAware ADS-B
Sat 10:07:56 AM 28.5710 -81.1370 235° Southwest 246 283 8,900 -154 Level FlightAware ADS-B
Sat 10:08:15 AM 28.5580 -81.1580 235° Southwest 244 281 8,800 -732 Descending FlightAware ADS-B
Sat 10:08:37 AM 28.5420 -81.1790 229° Southwest 244 281 8,400 -1,200 Descending FlightAware ADS-B
Sat 10:08:45 AM 28.5350 -81.1850 217° Southwest 245 282 8,200 -1,385 Descending FlightAware ADS-B
Sat 10:08:50 AM 28.5290 -81.1870 196° South 245 282 8,100 -1,636 Descending FlightAware ADS-B
Sat 10:08:56 AM 28.5220 -81.1880 187° South 247 284 7,900 -1,459 Descending FlightAware ADS-B
Sat 10:09:27 AM 28.4880 -81.1870 179° South 247 284 7,200 -1,333 Descending FlightAware ADS-B
Sat 10:09:41 AM 28.4700 -81.1880 183° South 246 283 6,900 -1,200 Descending FlightAware ADS-B
Sat 10:10:02 AM 28.4470 -81.1870 178° South 247 284 6,500 -1,077 Descending FlightAware ADS-B
Sat 10:10:20 AM 28.4280 -81.1870 180° South 244 281 6,200 -1,125 Descending FlightAware ADS-B
Sat 10:10:50 AM 28.3940 -81.1870 180° South 240 276 5,600 -1,147 Descending FlightAware ADS-B
Sat 10:11:28 AM 28.3520 -81.1880 181° South 232 267 4,900 -1,059 Descending FlightAware ADS-B
Sat 10:11:41 AM 28.3380 -81.1880 180° South 230 265 4,700 -769 Descending FlightAware ADS-B
Sat 10:12:07 AM 28.3120 -81.1870 178° South 215 247 4,400 -682 Descending FlightAware ADS-B
Sat 10:12:25 AM 28.2940 -81.1870 180° South 213 245 4,200 -615 Descending FlightAware ADS-B
Sat 10:12:46 AM 28.2760 -81.1870 180° South 192 221 4,000 -900 Descending FlightAware ADS-B
Sat 10:13:25 AM 28.2420 -81.1870 180° South 189 217 3,300 -583 Descending FlightAware ADS-B
Sat 10:13:58 AM 28.2200 -81.1870 180° South 189 217 3,300 -977 Level FlightAware ADS-B
Sat 10:14:08 AM 28.2180 -81.2130 265° West 189 217 2,600 -1,538 Descending FlightAware ADS-B
Sat 10:14:37 AM 28.2170 -81.2440 268° West 192 221 2,300 -387 Descending FlightAware ADS-B
Sat 10:15:10 AM 28.2160 -81.2740 268° West 192 221 2,200 -471 Descending FlightAware ADS-B
Sat 10:15:28 AM 28.2390 -81.2790 349° North 178 205 1,900 -409 Descending FlightAware ADS-B
Sat 10:15:54 AM 28.2570 -81.2830 349° North 178 205 1,900 -265 Level FlightAware ADS-B
Sat 10:16:36 AM 28.2940 -81.2810 North 173 199 1,600 -293 Descending FlightAware ADS-B
Sat 10:17:16 AM 28.3220 -81.2810 360° North 155 178 1,500 -194 Descending FlightAware ADS-B
Sat 10:17:38 AM 28.3440 -81.2820 358° North 171 197 1,400 -450 Descending FlightAware ADS-B
Sat 10:17:56 AM 28.3560 -81.2820 360° North 153 176 1,200 -686 Descending FlightAware ADS-B
Sat 10:18:13 AM 28.3680 -81.2820 360° North 141 162 1,000 -612 Descending FlightAware ADS-B
Sat 10:18:45 AM 28.3860 -81.2820 360° North 129 148 700 -381 Descending FlightAware ADS-B
Sat 10:19:16 AM 28.4000 -81.2820 360° North 129 148 600 -194 Descending FlightAware ADS-B
Sat 10:26:00 AM 28.4167 -81.3000 336° Northwest  Level FlightAware Approximate

Login

Don't have an account? Register now (free) for customized features, flight alerts, and more!